Time;durP1;ratioP1;P1;durP2;ratioP2;P2;SDS_P1;SDS_P2;PMS_P1;PMS_P2;Temp;Humidity;BMP_temperature;BMP_pressure;BME280_temperature;BME280_humidity;BME280_pressure;Samples;Min_cycle;Max_cycle;Signal;HPM_P1;HPM_P2
2022/12/18 00:01:48;;;;;;;62.08;23.47;;;;;;;-3.94;81.48;102565.63;1640768;85;20916;-75
2022/12/18 00:04:32;;;;;;;61.35;24.43;;;;;;;-3.93;81.45;102569.91;1641133;85;20964;-75
2022/12/18 00:07:17;;;;;;;55.52;22.02;;;;;;;-3.94;81.47;102570.67;1641211;85;21456;-75
2022/12/18 00:10:03;;;;;;;58.67;22.13;;;;;;;-3.92;81.47;102570.79;1642537;85;21904;-75
2022/12/18 00:12:48;;;;;;;68.55;23.70;;;;;;;-3.92;81.44;102579.63;1643521;85;21145;-75
2022/12/18 00:15:38;;;;;;;62.53;23.37;;;;;;;-3.92;81.46;102575.45;1641140;85;21399;-75
2022/12/18 00:18:23;;;;;;;56.33;22.22;;;;;;;-3.92;81.44;102581.77;1646233;85;21448;-75
2022/12/18 00:21:11;;;;;;;63.60;23.02;;;;;;;-3.94;81.38;102579.91;1652297;84;21373;-74
2022/12/18 00:23:57;;;;;;;56.92;21.93;;;;;;;-3.99;81.34;102580.83;1648533;84;20931;-75
2022/12/18 00:26:42;;;;;;;64.77;23.30;;;;;;;-3.99;81.38;102583.35;1648367;84;21566;-75
2022/12/18 00:29:27;;;;;;;62.65;22.37;;;;;;;-4.01;81.36;102583.23;1648245;84;20948;-74
2022/12/18 00:32:12;;;;;;;55.17;22.07;;;;;;;-4.01;81.39;102584.50;1647625;84;21056;-74
2022/12/18 00:34:57;;;;;;;47.60;20.68;;;;;;;-4.03;81.33;102583.51;1646707;84;20959;-75
2022/12/18 00:37:42;;;;;;;50.53;21.43;;;;;;;-4.08;81.32;102577.23;1646656;84;20919;-75
2022/12/18 00:40:27;;;;;;;54.40;20.55;;;;;;;-4.12;81.27;102582.82;1647071;84;20912;-74
2022/12/18 00:43:12;;;;;;;55.12;20.70;;;;;;;-4.14;81.30;102584.35;1648336;84;21330;-75
2022/12/18 00:45:57;;;;;;;55.07;20.13;;;;;;;-4.16;81.35;102585.88;1648728;84;20995;-74
2022/12/18 00:48:42;;;;;;;54.05;20.88;;;;;;;-4.18;81.33;102589.98;1648109;84;21384;-75
2022/12/18 00:51:27;;;;;;;62.43;22.60;;;;;;;-4.18;81.34;102595.41;1648661;84;20987;-75
2022/12/18 00:54:13;;;;;;;57.08;21.70;;;;;;;-4.22;81.32;102594.30;1653223;84;20943;-75
2022/12/18 00:56:57;;;;;;;53.80;20.85;;;;;;;-4.21;81.36;102604.89;1648100;84;21421;-75
2022/12/18 00:59:42;;;;;;;57.73;22.13;;;;;;;-4.19;81.37;102602.48;1645648;84;20900;-74
2022/12/18 01:02:27;;;;;;;50.97;21.17;;;;;;;-4.19;81.38;102602.48;1647638;84;21042;-75
2022/12/18 01:05:13;;;;;;;60.13;22.40;;;;;;;-4.18;81.37;102610.18;1647581;84;21442;-75
2022/12/18 01:07:59;;;;;;;55.95;22.02;;;;;;;-4.19;81.33;102617.27;1626128;84;46882;-76
2022/12/18 01:10:44;;;;;;;60.78;22.42;;;;;;;-4.20;81.30;102616.77;1652333;83;20935;-76
2022/12/18 01:13:28;;;;;;;52.35;22.37;;;;;;;-4.21;81.33;102612.86;1655219;83;20943;-76
2022/12/18 01:16:16;;;;;;;57.50;22.42;;;;;;;-4.20;81.39;102614.62;1648000;84;20971;-76
2022/12/18 01:19:01;;;;;;;58.17;21.20;;;;;;;-4.16;81.42;102620.40;1648399;84;20916;-75
2022/12/18 01:21:46;;;;;;;45.30;18.52;;;;;;;-4.13;81.39;102625.27;1643263;84;21007;-76
2022/12/18 01:24:31;;;;;;;57.47;20.33;;;;;;;-4.12;81.41;102622.36;1640993;84;20928;-76
2022/12/18 01:27:16;;;;;;;48.98;19.60;;;;;;;-4.11;81.35;102627.52;1640687;85;20995;-76
2022/12/18 01:30:01;;;;;;;43.23;17.87;;;;;;;-4.15;81.29;102633.11;1641738;85;20956;-76
2022/12/18 01:32:46;;;;;;;53.98;19.77;;;;;;;-4.18;81.24;102646.80;1640845;84;20975;-76
2022/12/18 01:35:31;;;;;;;50.30;20.23;;;;;;;-4.18;81.34;102648.45;1643051;85;20976;-76
2022/12/18 01:38:16;;;;;;;50.30;19.62;;;;;;;-4.20;81.25;102654.65;1641900;85;21321;-76
2022/12/18 01:41:02;;;;;;;45.90;19.55;;;;;;;-4.27;81.18;102654.06;1638259;85;20950;-75
2022/12/18 01:43:56;;;;;;;53.50;21.37;;;;;;;-4.30;81.21;102644.98;1642592;85;21530;-76
2022/12/18 01:46:41;;;;;;;48.85;19.77;;;;;;;-4.32;81.23;102652.45;1639547;85;21512;-76
2022/12/18 01:49:26;;;;;;;44.70;18.75;;;;;;;-4.34;81.24;102642.61;1640044;85;20991;-75
2022/12/18 01:52:11;;;;;;;46.40;19.05;;;;;;;-4.38;81.18;102646.55;1639991;85;20919;-75
2022/12/18 01:54:57;;;;;;;49.30;18.87;;;;;;;-4.39;81.21;102646.43;1643712;85;21040;-75
2022/12/18 01:57:43;;;;;;;42.95;18.62;;;;;;;-4.42;81.18;102652.50;1638592;85;21007;-76
2022/12/18 02:00:28;;;;;;;37.83;16.05;;;;;;;-4.48;81.13;102650.39;1640353;85;20936;-75
2022/12/18 02:03:13;;;;;;;47.38;19.23;;;;;;;-4.52;81.17;102653.81;1642760;85;20926;-75
2022/12/18 02:06:32;;;;;;;47.08;18.65;;;;;;;-4.53;81.20;102647.89;1641969;85;20920;-75
2022/12/18 02:09:27;;;;;;;55.17;19.95;;;;;;;-4.51;81.29;102661.51;1645495;85;21535;-75
2022/12/18 02:12:24;;;;;;;47.03;19.92;;;;;;;-4.54;81.17;102663.80;1640960;85;21025;-75
2022/12/18 02:15:36;;;;;;;51.95;19.27;;;;;;;-4.58;81.15;102652.08;1640782;85;20912;-75
2022/12/18 02:18:34;;;;;;;49.67;20.08;;;;;;;-4.57;81.25;102658.52;1640658;85;21385;-75
2022/12/18 02:21:33;;;;;;;46.42;19.87;;;;;;;-4.58;81.24;102659.27;1640894;85;21674;-75
2022/12/18 02:24:47;;;;;;;40.78;18.12;;;;;;;-4.60;81.23;102663.32;1647249;85;21338;-75
2022/12/18 02:27:34;;;;;;;34.90;14.18;;;;;;;-4.59;81.20;102656.63;1640571;85;21016;-75
2022/12/18 02:30:19;;;;;;;43.95;16.50;;;;;;;-4.60;81.23;102653.61;1639220;85;20920;-75
2022/12/18 02:33:08;;;;;;;44.58;17.40;;;;;;;-4.60;81.18;102656.13;1630757;85;21496;-74
2022/12/18 02:35:54;;;;;;;41.80;18.25;;;;;;;-4.63;81.17;102671.03;1640707;85;20952;-74
2022/12/18 02:38:41;;;;;;;48.80;18.25;;;;;;;-4.67;81.13;102672.44;1638620;85;21425;-75
2022/12/18 02:41:27;;;;;;;42.65;17.37;;;;;;;-4.71;81.11;102676.78;1639446;85;21007;-75
2022/12/18 02:44:13;;;;;;;41.15;16.67;;;;;;;-4.74;81.14;102677.41;1638661;85;21342;-75
2022/12/18 02:46:58;;;;;;;38.95;16.07;;;;;;;-4.76;81.09;102682.72;1640432;85;21429;-75
2022/12/18 02:50:05;;;;;;;42.93;17.73;;;;;;;-4.81;81.12;102677.69;1637964;85;20944;-75
2022/12/18 02:53:04;;;;;;;44.00;18.12;;;;;;;-4.83;81.22;102679.21;1641238;85;21462;-75
2022/12/18 02:56:20;;;;;;;48.63;19.02;;;;;;;-4.85;81.13;102678.59;1639808;85;20924;-75
2022/12/18 02:59:10;;;;;;;45.88;18.30;;;;;;;-4.85;81.17;102674.80;1638320;85;21848;-76
2022/12/18 03:02:23;;;;;;;45.30;18.33;;;;;;;-4.85;81.14;102670.64;1642984;85;21480;-75
2022/12/18 03:05:13;;;;;;;41.45;17.60;;;;;;;-4.83;81.15;102678.33;1641038;85;20948;-75
2022/12/18 03:08:04;;;;;;;47.35;18.30;;;;;;;-4.87;81.09;102677.20;1641881;85;21063;-75
2022/12/18 03:11:05;;;;;;;43.90;17.12;;;;;;;-4.86;81.10;102686.55;1639797;85;20944;-75
2022/12/18 03:13:55;;;;;;;44.67;18.00;;;;;;;-4.87;81.11;102682.63;1641775;85;20948;-76
2022/12/18 03:16:42;;;;;;;59.18;19.57;;;;;;;-4.92;81.00;102685.17;1640395;85;21425;-76
2022/12/18 03:19:31;;;;;;;41.63;18.35;;;;;;;-4.99;81.05;102676.23;1641740;85;20986;-76
2022/12/18 03:22:17;;;;;;;43.60;16.82;;;;;;;-4.96;81.10;102696.66;1647184;84;21575;-75
2022/12/18 03:25:06;;;;;;;44.95;18.00;;;;;;;-4.98;81.04;102700.70;1662256;84;20961;-75
2022/12/18 03:27:56;;;;;;;44.88;18.07;;;;;;;-5.03;80.98;102701.59;1658775;84;20909;-75
2022/12/18 03:30:44;;;;;;;48.15;17.12;;;;;;;-5.05;81.01;102699.70;1657706;84;20933;-76
2022/12/18 03:33:43;;;;;;;48.25;18.48;;;;;;;-5.10;80.99;102697.19;1659489;84;21037;-75
2022/12/18 03:36:30;;;;;;;47.17;18.42;;;;;;;-5.10;81.09;102701.86;1656933;84;20902;-76
2022/12/18 03:39:15;;;;;;;54.50;19.92;;;;;;;-5.09;81.04;102707.78;1657728;84;20925;-76
2022/12/18 03:42:21;;;;;;;49.40;18.92;;;;;;;-5.06;81.07;102711.81;1658305;84;20921;-75
2022/12/18 03:45:23;;;;;;;47.50;18.65;;;;;;;-5.08;81.05;102711.69;1658446;84;20937;-75
2022/12/18 03:48:37;;;;;;;49.90;19.15;;;;;;;-5.08;81.04;102707.02;1657038;84;21355;-75
2022/12/18 03:51:45;;;;;;;57.33;20.73;;;;;;;-5.18;81.04;102688.13;1659054;85;20906;-75
2022/12/18 03:54:31;;;;;;;53.08;19.42;;;;;;;-5.04;81.15;102708.66;1656688;84;20953;-75
2022/12/18 03:57:20;;;;;;;49.30;18.60;;;;;;;-5.02;81.09;102713.83;1657424;84;21445;-75
2022/12/18 04:00:11;;;;;;;54.85;19.57;;;;;;;-5.03;81.37;102719.62;1656995;84;20918;-75
2022/12/18 04:02:59;;;;;;;57.33;19.75;;;;;;;-5.09;80.97;102720.02;1656654;84;20988;-75
2022/12/18 04:05:46;;;;;;;52.25;19.05;;;;;;;-5.09;80.97;102720.02;1657602;84;20972;-74
2022/12/18 04:08:31;;;;;;;63.60;19.98;;;;;;;-5.14;81.02;102718.77;1649831;85;21443;-75
2022/12/18 04:11:16;;;;;;;60.10;20.27;;;;;;;-5.14;81.02;102718.77;1657087;85;21064;-75
2022/12/18 04:14:00;;;;;;;57.60;20.90;;;;;;;-5.12;81.03;102729.86;1649506;84;21450;-75
2022/12/18 04:16:46;;;;;;;51.10;18.00;;;;;;;-5.13;81.05;102728.47;1658027;84;20912;-75
2022/12/18 04:19:31;;;;;;;56.90;21.05;;;;;;;-5.15;80.96;102724.94;1660377;84;20964;-75
2022/12/18 04:22:15;;;;;;;51.08;19.23;;;;;;;-5.18;80.93;102736.05;1663501;84;20933;-76
2022/12/18 04:25:00;;;;;;;55.33;19.32;;;;;;;-5.24;80.85;102735.20;1644676;84;20961;-75
2022/12/18 04:27:45;;;;;;;51.47;19.53;;;;;;;-5.27;80.89;102741.63;1659992;84;20905;-75
2022/12/18 04:30:30;;;;;;;52.57;20.27;;;;;;;-5.27;80.88;102749.20;1659409;84;20941;-75
2022/12/18 04:33:18;;;;;;;39.37;15.97;;;;;;;-5.30;80.88;102746.05;1657516;84;20925;-74
2022/12/18 04:36:04;;;;;;;60.40;22.07;;;;;;;-5.34;80.87;102744.91;1538530;83;5001317;-74
2022/12/18 04:38:48;;;;;;;53.45;21.07;;;;;;;-5.36;80.92;102746.42;1643365;85;20945;-75
2022/12/18 04:41:33;;;;;;;42.60;16.17;;;;;;;-5.38;80.87;102756.76;1656303;85;21457;-75
2022/12/18 04:44:18;;;;;;;51.60;20.20;;;;;;;-5.43;80.81;102760.91;1657149;85;20961;-75
2022/12/18 04:47:03;;;;;;;47.70;19.17;;;;;;;-5.52;80.77;102751.33;1656771;84;20976;-75
2022/12/18 04:49:48;;;;;;;51.23;19.80;;;;;;;-5.57;80.71;102765.19;1661018;84;21447;-75
2022/12/18 04:52:33;;;;;;;60.30;20.17;;;;;;;-5.62;80.81;102766.44;1655651;85;20987;-75
2022/12/18 04:55:18;;;;;;;55.00;20.90;;;;;;;-5.63;80.89;102769.72;1656457;85;21004;-75
2022/12/18 04:58:03;;;;;;;35.53;14.67;;;;;;;-5.65;80.83;102775.89;1657154;85;20957;-75
2022/12/18 05:00:48;;;;;;;56.33;20.73;;;;;;;-5.64;80.93;102774.25;1656636;85;21398;-75
2022/12/18 05:03:34;;;;;;;59.03;18.63;;;;;;;-5.66;80.85;102777.90;1655311;84;21139;-75
2022/12/18 05:06:19;;;;;;;;;;;;;;;-5.66;80.89;102785.45;1659080;85;20941;-75
2022/12/18 05:09:03;;;;;;;43.33;17.37;;;;;;;-5.63;80.94;102783.58;1657731;84;20142;-75
2022/12/18 05:11:49;;;;;;;60.33;20.57;;;;;;;-5.60;80.97;102786.35;1657141;85;21093;-76
2022/12/18 05:14:33;;;;;;;59.37;21.20;;;;;;;-5.58;80.91;102781.95;1657550;84;20935;-75
2022/12/18 05:17:18;;;;;;;58.23;20.10;;;;;;;-5.56;80.93;102784.22;1658365;85;20969;-75
2022/12/18 05:20:04;;;;;;;58.63;21.47;;;;;;;-5.53;80.92;102789.89;1656464;85;21168;-75
2022/12/18 05:22:49;;;;;;;46.98;19.45;;;;;;;-5.54;80.90;102797.83;1658212;84;20981;-75
2022/12/18 05:25:34;;;;;;;46.13;18.15;;;;;;;-5.55;80.82;102805.26;1657294;85;20925;-75
2022/12/18 05:28:20;;;;;;;46.43;18.50;;;;;;;-5.58;80.79;102812.19;1658032;85;20969;-75
2022/12/18 05:31:05;;;;;;;47.73;18.65;;;;;;;-5.61;80.75;102817.34;1657968;84;21576;-75
2022/12/18 05:33:50;;;;;;;51.70;18.57;;;;;;;-5.68;80.70;102820.61;1657840;84;20961;-75
2022/12/18 05:36:35;;;;;;;41.90;17.95;;;;;;;-5.67;80.74;102831.57;1657117;85;20973;-75
2022/12/18 05:39:20;;;;;;;47.20;18.10;;;;;;;-5.69;80.76;102827.66;1657525;85;20944;-73
2022/12/18 05:42:05;;;;;;;37.75;13.05;;;;;;;-5.69;80.74;102831.44;1657020;84;21040;-74
2022/12/18 05:44:50;;;;;;;42.55;17.60;;;;;;;-5.70;80.75;102833.83;1656521;84;21374;-74
2022/12/18 05:47:35;;;;;;;48.70;17.87;;;;;;;-5.71;80.74;102834.58;1656602;85;21339;-75
2022/12/18 05:50:20;;;;;;;47.48;17.62;;;;;;;-5.74;80.71;102836.50;1656410;84;20985;-74
2022/12/18 05:53:06;;;;;;;46.08;17.20;;;;;;;-5.76;80.66;102842.16;1656879;84;20977;-74
2022/12/18 05:55:50;;;;;;;47.38;18.37;;;;;;;-5.81;80.67;102844.28;1660628;85;20968;-75
2022/12/18 05:58:36;;;;;;;45.85;18.23;;;;;;;-5.82;80.69;102850.08;1659416;84;20921;-75
2022/12/18 06:01:26;;;;;;;41.33;14.45;;;;;;;-5.81;80.71;102858.52;1655332;84;20961;-74
2022/12/18 06:04:11;;;;;;;42.90;16.87;;;;;;;-5.85;80.67;102861.52;1656231;84;21036;-75
2022/12/18 06:06:56;;;;;;;49.70;18.00;;;;;;;-5.90;80.64;102861.16;1654890;84;21473;-74
2022/12/18 06:09:41;;;;;;;53.60;19.10;;;;;;;-5.97;80.43;102861.77;1657084;84;20953;-75
2022/12/18 06:12:26;;;;;;;56.50;20.62;;;;;;;-5.97;80.43;102861.77;1656735;84;20925;-75
2022/12/18 06:15:11;;;;;;;56.93;20.13;;;;;;;-5.97;80.69;102868.94;1656811;84;21566;-74
2022/12/18 06:17:56;;;;;;;55.70;21.40;;;;;;;-5.97;80.67;102866.80;1655521;85;20928;-74
2022/12/18 06:20:41;;;;;;;54.30;20.03;;;;;;;-5.99;80.68;102870.44;1656281;85;20988;-74
2022/12/18 06:23:26;;;;;;;53.90;19.80;;;;;;;-5.98;80.79;102869.69;1655886;85;20948;-75
2022/12/18 06:26:13;;;;;;;52.23;20.40;;;;;;;-5.98;80.66;102867.55;1656495;84;21926;-75
2022/12/18 06:28:58;;;;;;;56.37;19.92;;;;;;;-5.99;80.69;102873.34;1656344;85;20969;-74
2022/12/18 06:31:43;;;;;;;54.73;19.30;;;;;;;-6.01;80.67;102880.38;1656094;85;20997;-75
2022/12/18 06:34:30;;;;;;;39.90;13.97;;;;;;;-5.98;80.69;102878.50;1655781;84;20949;-75
2022/12/18 06:37:15;;;;;;;49.40;18.35;;;;;;;-6.15;80.58;102858.16;1656225;85;21527;-74
2022/12/18 06:40:00;;;;;;;49.33;20.00;;;;;;;-6.05;80.65;102882.12;1656773;85;20925;-74
2022/12/18 06:42:45;;;;;;;57.30;19.65;;;;;;;-6.04;80.64;102883.02;1658063;85;21118;-75
2022/12/18 06:45:30;;;;;;;57.73;21.20;;;;;;;-6.09;80.58;102880.09;1657277;85;20925;-75
2022/12/18 06:48:15;;;;;;;62.43;22.15;;;;;;;-6.11;80.67;102880.70;1654962;85;21065;-75
2022/12/18 06:51:00;;;;;;;71.20;24.60;;;;;;;-6.08;80.73;102873.05;1656054;85;20918;-75
2022/12/18 06:53:45;;;;;;;66.80;24.13;;;;;;;-6.04;80.74;102879.23;1656597;85;20905;-75
2022/12/18 06:56:30;;;;;;;46.73;16.13;;;;;;;-6.04;80.72;102878.86;1659171;85;21434;-76
2022/12/18 06:59:15;;;;;;;61.42;21.97;;;;;;;-6.01;80.74;102890.83;1657627;84;21342;-76
2022/12/18 07:02:00;;;;;;;59.70;21.25;;;;;;;-6.04;80.64;102906.94;1658091;84;20960;-76
2022/12/18 07:04:45;;;;;;;59.73;22.23;;;;;;;-6.05;80.66;102908.56;1655879;84;20956;-77
2022/12/18 07:07:30;;;;;;;56.88;21.30;;;;;;;-6.05;80.65;102918.64;1655944;84;21779;-77
2022/12/18 07:10:15;;;;;;;51.50;18.92;;;;;;;-6.04;80.64;102918.27;1655604;85;20925;-77
2022/12/18 07:13:00;;;;;;;45.10;17.30;;;;;;;-6.08;80.65;102915.85;1655070;85;20953;-76
2022/12/18 07:15:45;;;;;;;46.53;17.87;;;;;;;-6.08;80.63;102916.23;1656898;85;20945;-76
2022/12/18 07:18:30;;;;;;;56.68;18.17;;;;;;;-6.10;80.59;102912.31;1656920;84;20937;-77
2022/12/18 07:21:18;;;;;;;56.37;17.95;;;;;;;-6.08;80.70;102914.97;1657952;85;20985;-77
2022/12/18 07:24:04;;;;;;;52.20;18.90;;;;;;;-6.07;80.68;102927.70;1650290;85;21514;-77
2022/12/18 07:26:49;;;;;;;;;;;;;;;-6.06;80.62;102929.84;1650205;84;21018;-77
2022/12/18 07:29:34;;;;;;;43.23;16.62;;;;;;;-6.07;80.67;102932.73;1645690;84;20442;-77
2022/12/18 07:32:19;;;;;;;52.23;17.77;;;;;;;-6.06;80.68;102943.31;1647905;84;20972;-77
2022/12/18 07:35:05;;;;;;;40.40;16.27;;;;;;;-6.03;80.75;102962.47;1646656;86;20931;-77
2022/12/18 07:37:49;;;;;;;51.90;18.57;;;;;;;-5.99;80.75;102965.27;1644720;84;20987;-78
2022/12/18 07:40:34;;;;;;;55.20;18.77;;;;;;;-5.99;80.72;102965.27;1644696;86;20967;-77
2022/12/18 07:43:19;;;;;;;38.35;14.13;;;;;;;-5.94;80.82;102973.73;1646776;84;20942;-77
2022/12/18 07:46:05;;;;;;;53.67;18.80;;;;;;;-5.90;80.79;102973.62;1646424;86;21515;-78
2022/12/18 07:48:50;;;;;;;62.67;21.00;;;;;;;-5.87;80.80;102977.27;1645129;84;20992;-77
2022/12/18 07:51:35;;;;;;;55.35;20.15;;;;;;;-5.82;80.86;102987.75;1646221;84;21492;-77
2022/12/18 07:54:20;;;;;;;66.72;23.15;;;;;;;-5.79;80.82;102986.76;1646044;86;20980;-76
2022/12/18 07:57:05;;;;;;;47.03;17.67;;;;;;;-5.78;80.78;103001.12;1643947;84;21420;-76
2022/12/18 07:59:50;;;;;;;58.07;20.70;;;;;;;-5.77;80.82;102997.86;1647338;86;20944;-78
2022/12/18 08:02:35;;;;;;;60.40;21.00;;;;;;;-5.71;80.85;102999.25;1646651;86;20999;-77
2022/12/18 08:05:20;;;;;;;45.47;16.20;;;;;;;-5.66;80.87;102997.13;1645757;84;20991;-73
2022/12/18 08:08:05;;;;;;;67.87;22.35;;;;;;;-5.61;80.90;103001.31;1646350;86;20979;-74
2022/12/18 08:10:50;;;;;;;63.47;22.17;;;;;;;-5.63;81.23;102976.35;1647895;84;20927;-74
2022/12/18 08:13:35;;;;;;;61.60;22.40;;;;;;;-5.50;80.91;102993.05;1646176;84;21730;-74
2022/12/18 08:16:21;;;;;;;65.50;21.85;;;;;;;-5.50;80.91;102993.05;1645388;86;21372;-73
2022/12/18 08:19:06;;;;;;;64.65;22.45;;;;;;;-5.47;80.92;103000.88;1646947;84;20983;-73
2022/12/18 08:21:51;;;;;;;65.63;21.83;;;;;;;-5.42;81.02;103006.83;1646937;85;21465;-74
2022/12/18 08:24:35;;;;;;;64.20;21.05;;;;;;;-5.40;80.93;102997.76;1651387;85;21930;-73
2022/12/18 08:27:20;;;;;;;69.32;23.62;;;;;;;-5.41;80.94;102995.98;1656828;84;20980;-74
2022/12/18 08:30:07;;;;;;;72.17;22.73;;;;;;;-5.36;81.01;102988.83;1657872;84;20957;-74
2022/12/18 08:32:53;;;;;;;76.00;23.55;;;;;;;-5.39;80.91;102965.87;1656784;85;21002;-74
2022/12/18 08:35:38;;;;;;;63.20;21.97;;;;;;;-5.39;80.91;102965.87;1657577;85;20917;-73
2022/12/18 08:38:23;;;;;;;57.67;20.57;;;;;;;-5.28;81.00;102982.80;1655428;84;21325;-74
2022/12/18 08:41:12;;;;;;;65.42;21.33;;;;;;;-5.29;80.93;102987.34;1656075;84;20941;-74
2022/12/18 08:47:00;;;;;;;57.35;21.17;;;;;;;-5.24;81.07;102984.83;1657261;85;20968;-74
2022/12/18 08:49:45;;;;;;;66.80;23.23;;;;;;;-5.18;81.12;102974.35;1657656;84;20929;-73
2022/12/18 08:52:32;;;;;;;65.70;22.35;;;;;;;-5.14;81.08;102971.34;1658911;84;21496;-74
2022/12/18 08:55:17;;;;;;;105.12;38.23;;;;;;;-5.14;81.02;102977.27;1655215;84;21334;-73
2022/12/18 08:58:02;;;;;;;117.23;42.67;;;;;;;-5.11;81.06;102980.42;1657053;84;20917;-73
2022/12/18 09:00:47;;;;;;;109.20;44.65;;;;;;;-5.10;81.03;102981.81;1657696;85;21441;-73
2022/12/18 09:03:32;;;;;;;83.27;27.07;;;;;;;-5.04;81.13;102978.93;1658756;84;21047;-73
2022/12/18 09:06:20;;;;;;;91.70;30.90;;;;;;;-5.01;81.08;102993.06;1655872;84;20961;-73
2022/12/18 09:09:05;;;;;;;151.37;58.48;;;;;;;-5.00;81.08;102988.16;1656119;84;20988;-73
2022/12/18 09:11:51;;;;;;;200.33;82.37;;;;;;;-4.98;81.09;102983.23;1656541;84;21025;-73
2022/12/18 09:14:36;;;;;;;118.80;48.80;;;;;;;-4.95;81.05;102987.66;1656414;84;20980;-73
2022/12/18 09:17:21;;;;;;;56.53;19.82;;;;;;;-4.94;81.07;102988.16;1655510;85;21041;-73
2022/12/18 09:20:07;;;;;;;91.47;37.85;;;;;;;-4.89;81.11;102989.06;1658132;85;21395;-73
2022/12/18 09:22:52;;;;;;;70.32;26.52;;;;;;;-4.90;81.04;102984.77;1658011;84;20942;-73
2022/12/18 09:25:38;;;;;;;151.90;61.50;;;;;;;-4.87;81.16;102985.41;1656667;84;21347;-73
2022/12/18 09:28:23;;;;;;;162.40;67.60;;;;;;;-4.89;81.12;102982.75;1655520;85;21862;-73
2022/12/18 09:31:10;;;;;;;123.00;52.93;;;;;;;-4.89;81.12;102982.75;1655397;85;21802;-72
2022/12/18 09:33:56;;;;;;;183.45;83.75;;;;;;;-4.87;81.08;102998.91;1656537;84;20933;-73
2022/12/18 09:36:41;;;;;;;98.52;41.48;;;;;;;-4.93;81.08;102987.03;1655836;85;20934;-73
2022/12/18 09:39:26;;;;;;;73.47;30.05;;;;;;;-4.86;81.05;102996.00;1655244;84;20992;-73
2022/12/18 09:42:21;;;;;;;67.23;25.07;;;;;;;-4.84;81.07;102993.23;1654481;85;20977;-73
2022/12/18 09:45:07;;;;;;;66.55;24.25;;;;;;;-4.83;81.07;102989.58;1654542;84;21331;-73
2022/12/18 09:47:54;;;;;;;65.97;28.40;;;;;;;-4.83;80.87;102995.00;1654448;85;20982;-74
2022/12/18 09:50:40;;;;;;;66.28;24.67;;;;;;;-4.83;80.87;102995.00;1653961;84;20957;-73
2022/12/18 09:53:28;;;;;;;;;;;;;;;-4.81;81.13;102990.97;1658807;84;21560;-74
2022/12/18 09:56:22;;;;;;;58.15;20.62;;;;;;;-4.75;81.21;102996.15;1658068;84;20438;-73
2022/12/18 09:59:27;;;;;;;58.55;19.48;;;;;;;-4.79;81.18;102975.20;1654297;84;21492;-73
2022/12/18 10:02:17;;;;;;;56.77;19.90;;;;;;;-4.68;81.15;102987.04;1655158;84;20965;-73
2022/12/18 10:05:16;;;;;;;49.95;18.27;;;;;;;-4.63;81.12;102987.80;1654890;84;21591;-73
2022/12/18 10:08:32;;;;;;;52.48;18.98;;;;;;;-4.66;81.11;102982.13;1655302;84;20964;-73
2022/12/18 10:11:42;;;;;;;;;;;;;;;-4.66;81.13;102975.43;1657500;84;20978;-73
2022/12/18 10:14:38;;;;;;;51.25;19.73;;;;;;;-4.65;81.14;102987.67;1652856;84;20150;-73
2022/12/18 10:17:48;;;;;;;54.27;19.80;;;;;;;-4.64;81.21;102989.44;1655841;84;21500;-73
2022/12/18 10:20:41;;;;;;;59.75;19.98;;;;;;;-4.59;81.24;102995.75;1655285;84;20909;-73
2022/12/18 10:23:34;;;;;;;58.68;19.62;;;;;;;-4.67;81.23;102963.56;1656344;84;21560;-72
2022/12/18 10:26:19;;;;;;;52.62;19.70;;;;;;;-4.50;81.26;102990.59;1655353;85;20963;-73
2022/12/18 10:29:13;;;;;;;60.10;19.85;;;;;;;-4.50;81.18;102990.20;1653493;85;21035;-73
2022/12/18 10:31:58;;;;;;;57.33;22.52;;;;;;;-4.49;81.23;102993.23;1653584;84;21599;-73
2022/12/18 10:34:48;;;;;;;54.95;21.10;;;;;;;-4.45;81.25;102983.02;1653998;84;21558;-73
2022/12/18 10:37:32;;;;;;;52.75;21.87;;;;;;;-4.42;81.26;102989.58;1654567;84;20903;-73
2022/12/18 10:40:17;;;;;;;51.63;20.93;;;;;;;-4.42;81.19;102990.47;1653458;84;21523;-73
2022/12/18 10:43:13;;;;;;;58.98;20.82;;;;;;;-4.40;81.26;103004.09;1653512;84;20954;-73
2022/12/18 10:46:09;;;;;;;64.03;22.65;;;;;;;-4.36;81.29;103002.33;1654504;84;20963;-73
2022/12/18 10:48:56;;;;;;;64.25;23.10;;;;;;;-4.32;81.31;102997.16;1655411;84;21510;-72
2022/12/18 10:51:41;;;;;;;64.27;23.15;;;;;;;-4.25;81.34;102996.02;1654517;84;20947;-73
2022/12/18 10:54:29;;;;;;;73.23;25.70;;;;;;;-4.22;81.36;102992.10;1658820;84;20899;-72
2022/12/18 10:57:36;;;;;;;64.32;24.45;;;;;;;-4.18;81.36;102987.80;1658519;84;20919;-73
2022/12/18 11:00:29;;;;;;;63.40;23.00;;;;;;;-4.14;81.35;102990.17;1657452;84;20931;-73
2022/12/18 11:03:37;;;;;;;70.45;26.87;;;;;;;-4.16;81.27;102986.25;1657510;85;21445;-73
2022/12/18 11:06:24;;;;;;;81.08;26.52;;;;;;;-4.16;81.30;102986.25;1653504;84;20932;-73
2022/12/18 11:09:22;;;;;;;70.65;25.25;;;;;;;-4.17;81.26;102979.47;1655063;85;20904;-73
2022/12/18 11:12:19;;;;;;;61.58;25.90;;;;;;;-4.14;81.32;102976.27;1655128;84;20923;-73
2022/12/18 11:15:05;;;;;;;57.23;22.52;;;;;;;-4.14;81.33;102974.63;1655975;85;20911;-74
2022/12/18 11:17:52;;;;;;;57.20;22.98;;;;;;;-4.11;81.37;102987.52;1639119;85;20983;-74
2022/12/18 11:20:37;;;;;;;51.50;21.15;;;;;;;-4.10;81.35;102982.08;1660108;84;21853;-73
2022/12/18 11:23:23;;;;;;;51.28;21.05;;;;;;;-4.05;81.46;102986.74;1656619;85;20903;-73
2022/12/18 11:26:08;;;;;;;56.98;21.65;;;;;;;-3.99;81.47;102978.77;1658511;85;20957;-73
2022/12/18 11:29:10;;;;;;;44.33;20.35;;;;;;;-3.97;81.35;102977.64;1659171;84;20953;-73
2022/12/18 11:32:16;;;;;;;49.20;20.32;;;;;;;-3.97;81.40;102970.94;1657411;84;20925;-73
2022/12/18 11:35:48;;;;;;;50.83;22.22;;;;;;;-3.94;81.41;102971.19;1656497;85;21513;-72
2022/12/18 11:38:40;;;;;;;58.68;22.15;;;;;;;-3.95;81.40;102964.75;1657705;84;21596;-73
2022/12/18 11:45:15;;;;;;;45.08;21.70;;;;;;;-3.85;81.54;102965.60;1658260;84;20929;-74
2022/12/18 11:48:08;;;;;;;49.10;22.70;;;;;;;-3.79;81.54;102975.32;1622481;86;21446;-74
2022/12/18 11:50:58;;;;;;;50.43;21.90;;;;;;;-3.72;81.58;102978.84;1660059;84;21539;-73
2022/12/18 11:53:43;;;;;;;46.23;21.35;;;;;;;-3.64;81.61;102989.18;1620665;86;21062;-73
2022/12/18 11:56:51;;;;;;;43.55;21.20;;;;;;;-3.63;81.51;102993.83;1619717;85;20954;-73
2022/12/18 12:00:05;;;;;;;56.18;21.42;;;;;;;-3.65;81.45;102992.47;1577468;88;21171;-73
2022/12/18 12:03:28;;;;;;;52.35;22.73;;;;;;;-3.64;81.47;102992.97;1589234;88;21040;-75
2022/12/18 12:06:26;;;;;;;49.77;24.00;;;;;;;-3.63;81.52;102987.12;1560776;88;21043;-74
2022/12/18 12:09:19;;;;;;;51.98;24.00;;;;;;;-3.58;81.59;102990.02;1615120;86;20938;-75
2022/12/18 12:12:46;;;;;;;58.85;23.98;;;;;;;-3.56;81.56;102993.55;1585047;88;21002;-74
2022/12/18 12:15:44;;;;;;;55.95;24.30;;;;;;;-3.53;81.59;102998.84;1589555;87;21006;-75
2022/12/18 12:19:05;;;;;;;53.08;23.38;;;;;;;-3.51;81.56;103004.91;1614803;86;21420;-75
2022/12/18 12:22:16;;;;;;;51.23;23.18;;;;;;;-3.52;81.53;103006.55;1585701;87;20994;-75
2022/12/18 12:25:15;;;;;;;55.40;24.57;;;;;;;-3.45;81.67;103015.51;1586283;89;21495;-75
2022/12/18 12:28:21;;;;;;;63.17;25.02;;;;;;;-3.41;81.60;103008.67;1582186;88;21087;-75
2022/12/18 12:31:31;;;;;;;74.03;25.62;;;;;;;-3.40;81.61;103016.76;1596702;87;21589;-75
2022/12/18 12:34:20;;;;;;;56.77;23.95;;;;;;;-3.39;81.61;103009.67;1595056;87;20978;-74
2022/12/18 12:37:34;;;;;;;56.23;24.60;;;;;;;-3.38;81.56;103006.00;1596519;88;20986;-75
2022/12/18 12:40:26;;;;;;;47.43;22.32;;;;;;;-3.41;81.54;103004.49;1595538;88;20966;-75
2022/12/18 12:43:42;;;;;;;50.20;23.22;;;;;;;-3.39;81.57;102999.55;1609859;87;21084;-74
2022/12/18 12:46:31;;;;;;;43.90;20.97;;;;;;;-3.41;81.51;102997.28;1597472;87;21467;-75
2022/12/18 12:49:26;;;;;;;49.60;23.27;;;;;;;-3.40;81.57;102993.61;1606931;87;21020;-74
2022/12/18 12:52:36;;;;;;;39.58;17.42;;;;;;;-3.39;81.58;102994.11;1603053;87;21563;-74
2022/12/18 12:55:27;;;;;;;57.80;25.60;;;;;;;-3.45;81.59;102982.63;1618494;87;21064;-75
2022/12/18 12:58:48;;;;;;;53.85;24.70;;;;;;;-3.30;81.64;102998.12;1593826;89;21261;-75